createdAt,value
2022-09-12T00:00:35.587Z,16.28
2022-09-12T00:01:35.744Z,16.23
2022-09-12T00:02:35.726Z,16.19
2022-09-12T00:03:36.061Z,16.17
2022-09-12T00:04:35.571Z,16.16
2022-09-12T00:05:41.124Z,16.15
2022-09-12T00:06:37.812Z,16.13
2022-09-12T00:07:35.912Z,16.11
2022-09-12T00:08:35.701Z,16.09
2022-09-12T00:10:39.822Z,16.10
2022-09-12T00:11:38.007Z,16.12
2022-09-12T00:12:35.694Z,16.14
2022-09-12T00:13:40.838Z,16.16
2022-09-12T00:14:35.574Z,16.19
2022-09-12T00:15:40.302Z,16.22
2022-09-12T00:16:36.817Z,16.25
2022-09-12T00:17:36.650Z,16.28
2022-09-12T00:18:35.699Z,16.30
2022-09-12T00:19:35.804Z,16.33
2022-09-12T00:20:35.861Z,16.34
2022-09-12T00:21:36.942Z,16.33
2022-09-12T00:22:36.365Z,16.32
2022-09-12T00:24:35.697Z,16.33
2022-09-12T00:25:35.567Z,16.34
2022-09-12T00:26:35.619Z,16.36
2022-09-12T00:27:35.627Z,16.39
2022-09-12T00:28:38.147Z,16.43
2022-09-12T00:29:35.654Z,16.48
2022-09-12T00:30:35.620Z,16.54
2022-09-12T00:31:35.862Z,16.58
2022-09-12T00:32:35.537Z,16.60
2022-09-12T00:33:36.462Z,16.63
2022-09-12T00:34:35.765Z,16.65
2022-09-12T00:35:35.638Z,16.66
2022-09-12T00:36:35.853Z,16.64
2022-09-12T00:37:36.718Z,16.62
2022-09-12T00:38:42.197Z,16.61
2022-09-12T00:39:35.555Z,16.59
2022-09-12T00:41:39.038Z,16.58
2022-09-12T00:42:35.571Z,16.57
2022-09-12T00:43:42.833Z,16.56
2022-09-12T00:44:45.993Z,16.55
2022-09-12T00:45:35.707Z,16.53
2022-09-12T00:46:40.268Z,16.52
2022-09-12T00:47:38.393Z,16.50
2022-09-12T00:48:42.593Z,16.49
2022-09-12T00:49:37.537Z,16.47
2022-09-12T00:50:35.686Z,16.46
2022-09-12T00:51:39.203Z,16.45
2022-09-12T00:52:41.169Z,16.44
2022-09-12T00:53:35.879Z,16.41
2022-09-12T00:54:47.365Z,16.38
2022-09-12T00:55:41.534Z,16.36
2022-09-12T00:56:37.444Z,16.33
2022-09-12T00:57:42.216Z,16.30
2022-09-12T00:58:42.129Z,16.27
2022-09-12T00:59:42.692Z,16.24
2022-09-12T01:00:35.639Z,16.22
2022-09-12T01:01:36.140Z,16.20
2022-09-12T01:02:35.830Z,16.18
2022-09-12T01:03:35.597Z,16.14
2022-09-12T01:04:39.047Z,16.12
2022-09-12T01:06:39.511Z,16.14
2022-09-12T01:07:40.287Z,16.17
2022-09-12T01:08:37.973Z,16.18
2022-09-12T01:09:37.481Z,16.21
2022-09-12T01:10:38.798Z,16.24
2022-09-12T01:11:39.589Z,16.27
2022-09-12T01:12:38.042Z,16.28
2022-09-12T01:13:37.054Z,16.32
2022-09-12T01:14:36.165Z,16.38
2022-09-12T01:15:37.693Z,16.42
2022-09-12T01:16:38.326Z,16.46
2022-09-12T01:17:48.754Z,16.49
2022-09-12T01:19:54.367Z,16.55
2022-09-12T01:20:44.244Z,16.58
2022-09-12T01:21:49.322Z,16.62
2022-09-12T01:22:53.663Z,16.70
2022-09-12T01:23:45.262Z,16.76
2022-09-12T01:24:52.536Z,16.81
2022-09-12T01:25:52.574Z,16.83
2022-09-12T01:26:53.678Z,16.80
2022-09-12T01:27:45.290Z,16.77
2022-09-12T01:28:44.353Z,16.73
2022-09-12T01:29:48.202Z,16.68
2022-09-12T01:30:45.983Z,16.63
2022-09-12T01:31:45.103Z,16.59
2022-09-12T01:33:43.870Z,16.60
2022-09-12T01:34:47.463Z,16.59
2022-09-12T01:37:49.959Z,16.60
2022-09-12T01:38:43.654Z,16.65
2022-09-12T01:39:46.963Z,16.70
2022-09-12T01:40:46.121Z,16.73
2022-09-12T01:41:53.211Z,16.74
2022-09-12T01:43:39.799Z,16.71
2022-09-12T01:44:43.080Z,16.67
2022-09-12T01:45:47.421Z,16.61
2022-09-12T01:46:49.401Z,16.55
2022-09-12T01:47:42.777Z,16.46
2022-09-12T01:48:41.477Z,16.40
2022-09-12T01:49:47.494Z,16.33
2022-09-12T01:50:44.477Z,16.26
2022-09-12T01:51:40.550Z,16.19
2022-09-12T01:52:45.310Z,16.11
2022-09-12T01:53:47.462Z,16.05
2022-09-12T01:54:43.132Z,15.99
2022-09-12T01:55:42.415Z,15.93
2022-09-12T01:56:39.157Z,15.87
2022-09-12T01:57:42.705Z,15.81
2022-09-12T01:58:43.902Z,15.74
2022-09-12T01:59:41.543Z,15.68
2022-09-12T02:00:43.561Z,15.61
2022-09-12T02:01:42.225Z,15.53
2022-09-12T02:02:40.868Z,15.45
2022-09-12T02:03:45.107Z,15.37
2022-09-12T02:04:48.924Z,15.29
2022-09-12T02:05:39.826Z,15.18
2022-09-12T02:06:47.545Z,15.08
2022-09-12T02:07:45.566Z,14.96
2022-09-12T02:08:43.325Z,14.78
2022-09-12T02:09:38.180Z,14.48
2022-09-12T02:10:44.198Z,14.13
2022-09-12T02:11:38.071Z,13.78
2022-09-12T02:12:47.055Z,13.49
2022-09-12T02:13:40.725Z,13.29
2022-09-12T02:14:42.068Z,13.07
2022-09-12T02:15:40.822Z,12.83
2022-09-12T02:16:42.874Z,12.66
2022-09-12T02:17:40.101Z,12.47
2022-09-12T02:18:38.597Z,12.33
2022-09-12T02:19:42.465Z,12.19
2022-09-12T02:20:48.545Z,12.09
2022-09-12T02:21:38.456Z,12.01
2022-09-12T02:22:37.662Z,11.93
2022-09-12T02:23:40.828Z,11.83
2022-09-12T02:24:40.900Z,11.74
2022-09-12T02:25:39.893Z,11.66
2022-09-12T02:26:42.761Z,11.58
2022-09-12T02:27:39.446Z,11.51
2022-09-12T02:28:41.311Z,11.45
2022-09-12T02:29:35.589Z,11.40
2022-09-12T02:30:43.816Z,11.37
2022-09-12T02:31:48.935Z,11.33
2022-09-12T02:32:47.317Z,11.30
2022-09-12T02:33:50.064Z,11.26
2022-09-12T02:34:43.241Z,11.22
2022-09-12T02:35:47.039Z,11.18
2022-09-12T02:36:47.764Z,11.14
2022-09-12T02:37:48.365Z,11.12
2022-09-12T02:38:44.770Z,11.08
2022-09-12T02:39:36.047Z,11.05
2022-09-12T02:40:38.083Z,11.01
2022-09-12T02:41:35.602Z,10.98
2022-09-12T02:42:36.904Z,10.96
2022-09-12T02:43:38.002Z,10.95
2022-09-12T02:44:37.014Z,10.94
2022-09-12T02:45:37.310Z,10.93
2022-09-12T02:46:42.371Z,10.92
2022-09-12T02:48:41.633Z,10.93
2022-09-12T02:49:35.517Z,10.92
2022-09-12T02:50:36.322Z,10.90
2022-09-12T02:51:35.688Z,10.89
2022-09-12T02:53:37.604Z,10.90
2022-09-12T02:55:37.361Z,10.91
2022-09-12T02:56:35.622Z,10.92
2022-09-12T02:58:35.688Z,10.91
2022-09-12T02:59:35.560Z,10.92
2022-09-12T03:00:46.772Z,10.93
2022-09-12T03:02:44.981Z,10.94
2022-09-12T03:03:54.194Z,10.93
2022-09-12T03:04:47.596Z,10.91
2022-09-12T03:05:46.699Z,10.88
2022-09-12T03:06:39.222Z,10.84
2022-09-12T03:07:50.915Z,10.80
2022-09-12T03:08:47.185Z,10.78
2022-09-12T03:09:48.722Z,10.77
2022-09-12T03:10:49.342Z,10.75
2022-09-12T03:11:44.044Z,10.73
2022-09-12T03:12:50.163Z,10.72
2022-09-12T03:13:47.080Z,10.71
2022-09-12T03:14:53.579Z,10.70
2022-09-12T03:18:51.295Z,10.69
2022-09-12T03:19:39.062Z,10.68
2022-09-12T03:20:45.803Z,10.63
2022-09-12T03:21:51.904Z,10.59
2022-09-12T03:22:44.352Z,10.55
2022-09-12T03:23:44.057Z,10.53
2022-09-12T03:24:45.677Z,10.51
2022-09-12T03:25:42.599Z,10.49
2022-09-12T03:26:38.059Z,10.48
2022-09-12T03:28:37.043Z,10.46
2022-09-12T03:30:48.097Z,10.45
2022-09-12T03:33:35.765Z,10.43
2022-09-12T03:34:35.610Z,10.41
2022-09-12T03:35:35.457Z,10.40
2022-09-12T03:36:35.516Z,10.38
2022-09-12T03:37:36.636Z,10.36
2022-09-12T03:38:35.543Z,10.35
2022-09-12T03:42:35.895Z,10.36
2022-09-12T03:46:36.102Z,10.37
2022-09-12T03:48:35.724Z,10.38
2022-09-12T03:49:35.418Z,10.39
2022-09-12T03:50:35.579Z,10.40
2022-09-12T03:51:35.492Z,10.41
2022-09-12T03:52:35.555Z,10.42
2022-09-12T03:53:35.882Z,10.41
2022-09-12T03:54:35.479Z,10.38
2022-09-12T03:55:36.382Z,10.37
2022-09-12T03:56:36.205Z,10.36
2022-09-12T03:58:36.469Z,10.35
2022-09-12T03:59:35.497Z,10.34
2022-09-12T04:00:35.436Z,10.33
2022-09-12T04:01:35.619Z,10.30
2022-09-12T04:02:36.107Z,10.28
2022-09-12T04:03:35.434Z,10.26
2022-09-12T04:04:35.421Z,10.25
2022-09-12T04:05:36.268Z,10.26
2022-09-12T04:06:35.782Z,10.29
2022-09-12T04:07:35.875Z,10.31
2022-09-12T04:08:36.325Z,10.34
2022-09-12T04:09:35.481Z,10.35
2022-09-12T04:10:35.465Z,10.33
2022-09-12T04:11:36.051Z,10.30
2022-09-12T04:12:35.851Z,10.27
2022-09-12T04:13:36.603Z,10.24
2022-09-12T04:14:35.517Z,10.23
2022-09-12T04:15:35.413Z,10.22
2022-09-12T04:16:35.714Z,10.21
2022-09-12T04:17:36.008Z,10.19
2022-09-12T04:19:39.789Z,10.18
2022-09-12T04:20:36.765Z,10.17
2022-09-12T04:21:35.583Z,10.16
2022-09-12T04:22:35.510Z,10.15
2022-09-12T04:23:35.975Z,10.14
2022-09-12T04:24:35.452Z,10.12
2022-09-12T04:25:35.395Z,10.11
2022-09-12T04:26:35.525Z,10.09
2022-09-12T04:27:35.826Z,10.06
2022-09-12T04:28:37.347Z,10.03
2022-09-12T04:29:35.870Z,10.01
2022-09-12T04:30:35.940Z,9.98
2022-09-12T04:31:35.457Z,9.94
2022-09-12T04:32:35.403Z,9.91
2022-09-12T04:33:36.258Z,9.87
2022-09-12T04:34:35.461Z,9.85
2022-09-12T04:35:36.836Z,9.83
2022-09-12T04:36:35.967Z,9.82
2022-09-12T04:37:35.531Z,9.80
2022-09-12T04:38:36.685Z,9.79
2022-09-12T04:39:35.390Z,9.77
2022-09-12T04:40:35.605Z,9.76
2022-09-12T04:42:35.418Z,9.75
2022-09-12T04:43:35.400Z,9.76
2022-09-12T04:46:38.971Z,9.77
2022-09-12T04:47:35.601Z,9.78
2022-09-12T04:48:35.664Z,9.80
2022-09-12T04:49:35.567Z,9.81
2022-09-12T04:50:35.403Z,9.82
2022-09-12T04:51:37.276Z,9.80
2022-09-12T04:52:35.439Z,9.81
2022-09-12T04:53:37.126Z,9.80
2022-09-12T04:55:36.384Z,9.79
2022-09-12T04:56:39.477Z,9.77
2022-09-12T04:57:37.261Z,9.76
2022-09-12T04:58:36.115Z,9.74
2022-09-12T04:59:35.462Z,9.72
2022-09-12T05:00:35.406Z,9.70
2022-09-12T05:02:35.740Z,9.69
2022-09-12T05:03:36.092Z,9.67
2022-09-12T05:04:36.133Z,9.66
2022-09-12T05:05:36.870Z,9.63
2022-09-12T05:06:37.595Z,9.62
2022-09-12T05:07:35.942Z,9.60
2022-09-12T05:08:36.584Z,9.57
2022-09-12T05:09:35.381Z,9.54
2022-09-12T05:10:35.717Z,9.52
2022-09-12T05:12:03.212Z,9.50
2022-09-12T05:12:36.040Z,9.48
2022-09-12T05:13:37.633Z,9.47
2022-09-12T05:14:36.536Z,9.45
2022-09-12T05:15:35.777Z,9.43
2022-09-12T05:16:35.452Z,9.42
2022-09-12T05:17:36.267Z,9.41
2022-09-12T05:18:37.770Z,9.38
2022-09-12T05:19:35.534Z,9.36
2022-09-12T05:20:35.571Z,9.35
2022-09-12T05:21:35.373Z,9.33
2022-09-12T05:22:35.410Z,9.31
2022-09-12T05:23:36.082Z,9.30
2022-09-12T05:24:35.441Z,9.29
2022-09-12T05:25:35.351Z,9.30
2022-09-12T05:28:37.597Z,9.29
2022-09-12T05:31:35.761Z,9.28
2022-09-12T05:33:37.075Z,9.29
2022-09-12T05:37:35.385Z,9.30
2022-09-12T05:38:36.396Z,9.31
2022-09-12T05:40:35.934Z,9.32
2022-09-12T05:42:37.048Z,9.33
2022-09-12T05:43:36.451Z,9.34
2022-09-12T05:44:35.357Z,9.35
2022-09-12T05:45:35.446Z,9.36
2022-09-12T05:46:39.491Z,9.37
2022-09-12T05:48:37.302Z,9.38
2022-09-12T05:49:36.528Z,9.39
2022-09-12T05:50:35.363Z,9.40
2022-09-12T05:51:39.459Z,9.41
2022-09-12T05:53:35.880Z,9.42
2022-09-12T05:54:35.422Z,9.43
2022-09-12T05:55:35.399Z,9.45
2022-09-12T05:56:39.901Z,9.48
2022-09-12T05:57:36.021Z,9.50
2022-09-12T05:58:36.821Z,9.54
2022-09-12T05:59:35.461Z,9.57
2022-09-12T06:00:35.372Z,9.59
2022-09-12T06:01:36.668Z,9.61
2022-09-12T06:02:36.289Z,9.63
2022-09-12T06:03:36.404Z,9.66
2022-09-12T06:04:35.393Z,9.69
2022-09-12T06:05:36.359Z,9.72
2022-09-12T06:06:41.772Z,9.75
2022-09-12T06:07:36.286Z,9.79
2022-09-12T06:08:36.661Z,9.81
2022-09-12T06:09:35.391Z,9.85
2022-09-12T06:10:35.539Z,9.87
2022-09-12T06:11:37.489Z,9.91
2022-09-12T06:12:35.328Z,9.92
2022-09-12T06:16:37.395Z,9.91
2022-09-12T06:17:35.405Z,9.89
2022-09-12T06:18:36.279Z,9.88
2022-09-12T06:19:37.912Z,9.86
2022-09-12T06:20:37.239Z,9.84
2022-09-12T06:21:35.801Z,9.83
2022-09-12T06:22:35.523Z,9.81
2022-09-12T06:23:35.793Z,9.78
2022-09-12T06:24:35.370Z,9.76
2022-09-12T06:25:35.358Z,9.73
2022-09-12T06:26:35.740Z,9.70
2022-09-12T06:27:35.310Z,9.68
2022-09-12T06:28:38.619Z,9.66
2022-09-12T06:29:35.292Z,9.63
2022-09-12T06:30:35.379Z,9.62
2022-09-12T06:31:38.071Z,9.59
2022-09-12T06:32:35.749Z,9.57
2022-09-12T06:33:36.525Z,9.55
2022-09-12T06:34:36.701Z,9.53
2022-09-12T06:35:38.444Z,9.51
2022-09-12T06:36:38.784Z,9.50
2022-09-12T06:37:35.327Z,9.48
2022-09-12T06:38:35.693Z,9.47
2022-09-12T06:39:35.951Z,9.45
2022-09-12T06:41:39.383Z,9.43
2022-09-12T06:44:35.330Z,9.41
2022-09-12T06:45:35.367Z,9.40
2022-09-12T06:46:35.385Z,9.39
2022-09-12T06:50:35.730Z,9.38
2022-09-12T06:54:35.360Z,9.37
2022-09-12T06:56:35.385Z,9.36
2022-09-12T06:58:36.227Z,9.35
2022-09-12T06:59:35.286Z,9.34
2022-09-12T07:00:35.362Z,9.33
2022-09-12T07:01:35.365Z,9.32
2022-09-12T07:02:35.373Z,9.31
2022-09-12T07:06:40.039Z,9.30
2022-09-12T07:08:37.274Z,9.29
2022-09-12T07:10:35.307Z,9.30
2022-09-12T07:13:35.468Z,9.31
2022-09-12T07:15:36.893Z,9.32
2022-09-12T07:16:37.172Z,9.33
2022-09-12T07:19:35.533Z,9.34
2022-09-12T07:21:40.638Z,9.35
2022-09-12T07:23:35.699Z,9.36
2022-09-12T07:26:35.880Z,9.35
2022-09-12T07:27:35.666Z,9.34
2022-09-12T07:28:36.177Z,9.33
2022-09-12T07:29:37.355Z,9.32
2022-09-12T07:31:35.306Z,9.30
2022-09-12T07:32:35.381Z,9.29
2022-09-12T07:33:36.307Z,9.28
2022-09-12T07:34:35.966Z,9.27
2022-09-12T07:35:35.501Z,9.26
2022-09-12T07:36:35.756Z,9.24
2022-09-12T07:37:35.317Z,9.23
2022-09-12T07:38:35.763Z,9.21
2022-09-12T07:39:35.357Z,9.19
2022-09-12T07:40:35.625Z,9.18
2022-09-12T07:41:35.366Z,9.16
2022-09-12T07:42:35.998Z,9.14
2022-09-12T07:43:35.751Z,9.13
2022-09-12T07:44:35.424Z,9.12
2022-09-12T07:48:35.738Z,9.11
2022-09-12T07:52:35.286Z,9.10
2022-09-12T07:55:35.355Z,9.09
2022-09-12T07:56:38.871Z,9.08
2022-09-12T07:58:36.829Z,9.09
2022-09-12T07:59:51.978Z,9.08
2022-09-12T08:01:35.490Z,9.07
2022-09-12T08:03:36.118Z,9.06
2022-09-12T08:04:36.585Z,9.05
2022-09-12T08:05:35.395Z,9.02
2022-09-12T08:06:37.107Z,9.00
2022-09-12T08:07:35.384Z,8.98
2022-09-12T08:08:35.558Z,8.96
2022-09-12T08:09:35.487Z,8.94
2022-09-12T08:10:35.535Z,8.92
2022-09-12T08:11:35.828Z,8.91
2022-09-12T08:12:35.320Z,8.89
2022-09-12T08:13:36.802Z,8.86
2022-09-12T08:14:35.223Z,8.85
2022-09-12T08:15:36.547Z,8.83
2022-09-12T08:16:35.835Z,8.80
2022-09-12T08:17:35.246Z,8.79
2022-09-12T08:18:36.666Z,8.76
2022-09-12T08:19:38.999Z,8.74
2022-09-12T08:20:35.309Z,8.71
2022-09-12T08:21:35.397Z,8.68
2022-09-12T08:22:35.303Z,8.66
2022-09-12T08:23:35.932Z,8.63
2022-09-12T08:24:35.327Z,8.61
2022-09-12T08:25:35.356Z,8.59
2022-09-12T08:26:36.183Z,8.57
2022-09-12T08:27:35.418Z,8.56
2022-09-12T08:28:36.685Z,8.55
2022-09-12T08:31:38.006Z,8.56
2022-09-12T08:32:36.345Z,8.57
2022-09-12T08:35:35.288Z,8.55
2022-09-12T08:37:35.305Z,8.54
2022-09-12T08:38:36.386Z,8.53
2022-09-12T08:39:35.270Z,8.52
2022-09-12T08:41:40.832Z,8.51
2022-09-12T08:44:53.831Z,8.50
2022-09-12T08:48:36.228Z,8.49
2022-09-12T08:51:36.881Z,8.48
2022-09-12T08:52:37.659Z,8.49
2022-09-12T08:57:35.329Z,8.48
2022-09-12T08:58:43.471Z,8.49
2022-09-12T08:59:39.473Z,8.48
2022-09-12T09:07:51.737Z,8.49
2022-09-12T09:12:48.441Z,8.50
2022-09-12T09:15:50.987Z,8.51
2022-09-12T09:19:41.056Z,8.52
2022-09-12T09:20:47.567Z,8.51
2022-09-12T09:23:41.669Z,8.50
2022-09-12T09:24:40.552Z,8.49
2022-09-12T09:25:45.508Z,8.47
2022-09-12T09:26:40.571Z,8.46
2022-09-12T09:27:44.207Z,8.45
2022-09-12T09:28:41.981Z,8.44
2022-09-12T09:29:42.067Z,8.43
2022-09-12T09:31:39.221Z,8.42
2022-09-12T09:32:41.562Z,8.41
2022-09-12T09:33:36.211Z,8.40
2022-09-12T09:34:36.193Z,8.39
2022-09-12T09:35:46.125Z,8.38
2022-09-12T09:36:41.049Z,8.37
2022-09-12T09:37:43.116Z,8.35
2022-09-12T09:39:50.816Z,8.34
2022-09-12T09:40:47.090Z,8.33
2022-09-12T09:42:39.046Z,8.32
2022-09-12T09:43:35.309Z,8.33
2022-09-12T09:47:35.245Z,8.32
2022-09-12T09:48:38.164Z,8.33
2022-09-12T09:50:35.439Z,8.34
2022-09-12T09:51:37.477Z,8.35
2022-09-12T09:52:36.795Z,8.36
2022-09-12T09:54:37.840Z,8.37
2022-09-12T09:55:41.615Z,8.38
2022-09-12T09:57:42.245Z,8.40
2022-09-12T09:58:36.848Z,8.42
2022-09-12T09:59:35.438Z,8.44
2022-09-12T10:03:40.185Z,8.43
2022-09-12T10:04:41.613Z,8.41
2022-09-12T10:05:46.113Z,8.38
2022-09-12T10:07:35.334Z,8.35
2022-09-12T10:08:37.819Z,8.34
2022-09-12T10:09:37.191Z,8.35
2022-09-12T10:10:35.214Z,8.36
2022-09-12T10:11:35.247Z,8.38
2022-09-12T10:12:35.244Z,8.39
2022-09-12T10:13:43.865Z,8.40
2022-09-12T10:15:35.341Z,8.39
2022-09-12T10:16:46.031Z,8.38
2022-09-12T10:17:44.649Z,8.37
2022-09-12T10:18:39.454Z,8.35
2022-09-12T10:19:38.596Z,8.33
2022-09-12T10:20:42.740Z,8.32
2022-09-12T10:21:41.266Z,8.30
2022-09-12T10:23:37.876Z,8.28
2022-09-12T10:25:35.218Z,8.29
2022-09-12T10:27:36.382Z,8.28
2022-09-12T10:29:44.178Z,8.29
2022-09-12T10:30:35.261Z,8.31
2022-09-12T10:31:54.173Z,8.33
2022-09-12T10:32:40.100Z,8.35
2022-09-12T10:33:43.374Z,8.37
2022-09-12T10:34:42.746Z,8.39
2022-09-12T10:35:46.406Z,8.40
2022-09-12T10:37:37.738Z,8.41
2022-09-12T10:38:35.200Z,8.42
2022-09-12T10:39:36.389Z,8.44
2022-09-12T10:40:38.082Z,8.46
2022-09-12T10:41:40.032Z,8.47
2022-09-12T10:43:38.301Z,8.46
2022-09-12T10:45:37.650Z,8.45
2022-09-12T10:46:35.109Z,8.44
2022-09-12T10:47:35.199Z,8.45
2022-09-12T10:48:36.375Z,8.44
2022-09-12T10:50:38.225Z,8.45
2022-09-12T10:52:35.154Z,8.46
2022-09-12T10:53:42.493Z,8.47
2022-09-12T10:56:47.450Z,8.46
2022-09-12T10:58:50.118Z,8.47
2022-09-12T11:01:48.760Z,8.46
2022-09-12T11:03:43.847Z,8.44
2022-09-12T11:04:53.234Z,8.42
2022-09-12T11:06:44.037Z,8.43
2022-09-12T11:09:42.635Z,8.42
2022-09-12T11:11:51.805Z,8.43
2022-09-12T11:13:43.861Z,8.44
2022-09-12T11:14:49.457Z,8.43
2022-09-12T11:19:52.111Z,8.42
2022-09-12T11:20:43.865Z,8.41
2022-09-12T11:22:53.233Z,8.40
2022-09-12T11:23:50.357Z,8.39
2022-09-12T11:24:47.849Z,8.37
2022-09-12T11:25:46.154Z,8.35
2022-09-12T11:28:47.289Z,8.34
2022-09-12T11:31:47.830Z,8.33
2022-09-12T11:33:45.457Z,8.32
2022-09-12T11:34:50.492Z,8.30
2022-09-12T11:35:41.602Z,8.29
2022-09-12T11:36:40.634Z,8.26
2022-09-12T11:37:43.977Z,8.25
2022-09-12T11:38:43.328Z,8.23
2022-09-12T11:39:40.362Z,8.22
2022-09-12T11:40:44.450Z,8.21
2022-09-12T11:41:40.359Z,8.20
2022-09-12T11:42:40.063Z,8.19
2022-09-12T11:43:39.932Z,8.18
2022-09-12T11:44:41.089Z,8.17
2022-09-12T11:45:43.735Z,8.16
2022-09-12T11:48:49.252Z,8.17
2022-09-12T11:49:41.847Z,8.16
2022-09-12T11:50:35.226Z,8.13
2022-09-12T11:51:43.552Z,8.10
2022-09-12T11:52:40.073Z,8.06
2022-09-12T11:53:41.910Z,8.01
2022-09-12T11:54:40.514Z,7.97
2022-09-12T11:55:51.041Z,7.94
2022-09-12T11:56:39.907Z,7.92
2022-09-12T11:57:44.127Z,7.89
2022-09-12T11:58:36.790Z,7.86
2022-09-12T11:59:45.267Z,7.84
2022-09-12T12:00:41.892Z,7.81
2022-09-12T12:01:45.046Z,7.79
2022-09-12T12:03:44.243Z,7.78
2022-09-12T12:04:43.248Z,7.76
2022-09-12T12:05:41.118Z,7.75
2022-09-12T12:06:47.644Z,7.74
2022-09-12T12:08:40.844Z,7.75
2022-09-12T12:10:39.156Z,7.76
2022-09-12T12:11:39.999Z,7.77
2022-09-12T12:12:35.254Z,7.78
2022-09-12T12:15:37.784Z,7.79
2022-09-12T12:18:38.989Z,7.80
2022-09-12T12:20:35.939Z,7.79
2022-09-12T12:21:44.069Z,7.80
2022-09-12T12:22:35.172Z,7.79
2022-09-12T12:23:36.695Z,7.78
2022-09-12T12:24:35.420Z,7.77
2022-09-12T12:25:53.308Z,7.78
2022-09-12T12:26:53.218Z,7.79
2022-09-12T12:27:46.889Z,7.80
2022-09-12T12:28:50.511Z,7.81
2022-09-12T12:29:44.099Z,7.82
2022-09-12T12:30:53.199Z,7.84
2022-09-12T12:31:53.167Z,7.86
2022-09-12T12:32:35.136Z,7.87
2022-09-12T12:34:36.325Z,7.86
2022-09-12T12:35:41.260Z,7.85
2022-09-12T12:36:40.485Z,7.83
2022-09-12T12:37:44.062Z,7.82
2022-09-12T12:38:37.320Z,7.80
2022-09-12T12:39:44.023Z,7.78
2022-09-12T12:40:35.057Z,7.76
2022-09-12T12:41:44.334Z,7.74
2022-09-12T12:42:44.781Z,7.72
2022-09-12T12:43:35.054Z,7.71
2022-09-12T12:44:44.802Z,7.70
2022-09-12T12:45:47.004Z,7.69
2022-09-12T12:46:39.606Z,7.67
2022-09-12T12:47:42.733Z,7.65
2022-09-12T12:48:45.824Z,7.64
2022-09-12T12:49:35.128Z,7.63
2022-09-12T12:50:35.269Z,7.62
2022-09-12T12:52:53.947Z,7.63
2022-09-12T12:53:36.215Z,7.64
2022-09-12T12:55:46.341Z,7.66
2022-09-12T12:56:40.070Z,7.69
2022-09-12T12:57:50.674Z,7.70
2022-09-12T12:58:39.778Z,7.71
2022-09-12T13:01:41.220Z,7.70
2022-09-12T13:02:40.028Z,7.69
2022-09-12T13:03:36.639Z,7.68
2022-09-12T13:04:35.538Z,7.67
2022-09-12T13:05:50.432Z,7.68
2022-09-12T13:06:36.373Z,7.69
2022-09-12T13:07:38.585Z,7.70
2022-09-12T13:08:39.643Z,7.69
2022-09-12T13:09:44.324Z,7.67
2022-09-12T13:10:35.957Z,7.65
2022-09-12T13:11:38.829Z,7.63
2022-09-12T13:12:44.508Z,7.62
2022-09-12T13:13:37.584Z,7.61
2022-09-12T13:14:37.781Z,7.59
2022-09-12T13:15:43.933Z,7.58
2022-09-12T13:16:39.130Z,7.55
2022-09-12T13:17:44.189Z,7.53
2022-09-12T13:18:42.548Z,7.50
2022-09-12T13:19:38.398Z,7.47
2022-09-12T13:20:44.914Z,7.46
2022-09-12T13:21:35.324Z,7.44
2022-09-12T13:23:35.562Z,7.43
2022-09-12T13:24:44.695Z,7.42
2022-09-12T13:26:44.138Z,7.40
2022-09-12T13:28:35.542Z,7.39
2022-09-12T13:30:37.952Z,7.38
2022-09-12T13:32:36.114Z,7.39
2022-09-12T13:33:42.947Z,7.40
2022-09-12T13:36:47.710Z,7.38
2022-09-12T13:37:50.881Z,7.34
2022-09-12T13:38:48.692Z,7.29
2022-09-12T13:39:46.416Z,7.26
2022-09-12T13:40:50.385Z,7.21
2022-09-12T13:41:51.725Z,7.17
2022-09-12T13:42:41.199Z,7.11
2022-09-12T13:43:41.906Z,7.06
2022-09-12T13:44:49.739Z,7.02
2022-09-12T13:45:39.252Z,6.97
2022-09-12T13:46:35.597Z,6.94
2022-09-12T13:47:38.679Z,6.92
2022-09-12T13:48:35.564Z,6.89
2022-09-12T13:49:37.332Z,6.87
2022-09-12T13:50:43.235Z,6.85
2022-09-12T13:51:35.151Z,6.83
2022-09-12T13:52:38.446Z,6.81
2022-09-12T13:53:45.245Z,6.78
2022-09-12T13:54:39.079Z,6.76
2022-09-12T13:55:38.278Z,6.74
2022-09-12T13:56:35.098Z,6.75
2022-09-12T13:57:39.087Z,6.76
2022-09-12T13:59:40.594Z,6.78
2022-09-12T14:00:37.406Z,6.79
2022-09-12T14:01:44.323Z,6.80
2022-09-12T14:02:37.530Z,6.82
2022-09-12T14:03:58.543Z,6.83
2022-09-12T14:04:49.084Z,6.84
2022-09-12T14:05:38.797Z,6.86
2022-09-12T14:06:45.321Z,6.88
2022-09-12T14:07:41.421Z,6.90
2022-09-12T14:08:35.074Z,6.93
2022-09-12T14:09:40.612Z,6.96
2022-09-12T14:10:39.573Z,6.98
2022-09-12T14:11:38.489Z,6.99
2022-09-12T14:12:44.087Z,6.98
2022-09-12T14:13:35.940Z,6.95
2022-09-12T14:14:42.287Z,6.90
2022-09-12T14:15:37.948Z,6.85
2022-09-12T14:16:41.055Z,6.80
2022-09-12T14:17:37.509Z,6.75
2022-09-12T14:18:36.630Z,6.69
2022-09-12T14:19:35.747Z,6.65
2022-09-12T14:20:38.756Z,6.59
2022-09-12T14:21:37.397Z,6.55
2022-09-12T14:22:39.144Z,6.52
2022-09-12T14:23:36.677Z,6.48
2022-09-12T14:24:35.039Z,6.45
2022-09-12T14:25:41.625Z,6.43
2022-09-12T14:26:37.703Z,6.41
2022-09-12T14:27:45.898Z,6.39
2022-09-12T14:28:36.169Z,6.38
2022-09-12T14:29:35.325Z,6.37
2022-09-12T14:32:35.666Z,6.36
2022-09-12T14:33:45.494Z,6.35
2022-09-12T14:34:34.982Z,6.34
2022-09-12T14:35:35.071Z,6.32
2022-09-12T14:36:41.256Z,6.30
2022-09-12T14:37:35.657Z,6.27
2022-09-12T14:38:41.954Z,6.25
2022-09-12T14:39:41.294Z,6.22
2022-09-12T14:40:43.884Z,6.19
2022-09-12T14:41:39.441Z,6.16
2022-09-12T14:42:35.555Z,6.14
2022-09-12T14:43:39.184Z,6.10
2022-09-12T14:44:36.513Z,6.08
2022-09-12T14:45:35.016Z,6.05
2022-09-12T14:46:37.962Z,6.01
2022-09-12T14:47:41.468Z,5.98
2022-09-12T14:48:38.705Z,5.94
2022-09-12T14:49:37.401Z,5.92
2022-09-12T14:50:37.398Z,5.88
2022-09-12T14:51:39.225Z,5.86
2022-09-12T14:52:35.615Z,5.83
2022-09-12T14:53:37.122Z,5.81
2022-09-12T14:54:40.423Z,5.78
2022-09-12T14:55:42.752Z,5.77
2022-09-12T14:56:44.680Z,5.75
2022-09-12T14:57:40.660Z,5.73
2022-09-12T14:58:35.534Z,5.72
2022-09-12T14:59:40.154Z,5.71
2022-09-12T15:01:35.043Z,5.70
2022-09-12T15:02:35.204Z,5.71
2022-09-12T15:03:49.520Z,5.72
2022-09-12T15:04:43.897Z,5.73
2022-09-12T15:05:44.333Z,5.74
2022-09-12T15:06:39.186Z,5.75
2022-09-12T15:07:38.699Z,5.77
2022-09-12T15:08:35.348Z,5.78
2022-09-12T15:09:35.119Z,5.80
2022-09-12T15:10:37.881Z,5.82
2022-09-12T15:11:35.061Z,5.85
2022-09-12T15:12:35.030Z,5.88
2022-09-12T15:13:41.469Z,5.91
2022-09-12T15:14:34.981Z,5.95
2022-09-12T15:15:35.775Z,5.98
2022-09-12T15:16:34.930Z,6.01
2022-09-12T15:17:34.917Z,6.03
2022-09-12T15:18:34.923Z,6.04
2022-09-12T15:19:34.960Z,6.05
2022-09-12T15:20:38.775Z,6.06
2022-09-12T15:21:34.928Z,6.07
2022-09-12T15:22:35.774Z,6.08
2022-09-12T15:24:34.964Z,6.09
2022-09-12T15:28:35.577Z,6.08
2022-09-12T15:30:35.005Z,6.06
2022-09-12T15:31:35.022Z,6.04
2022-09-12T15:32:35.477Z,6.03
2022-09-12T15:33:35.174Z,6.02
2022-09-12T15:34:34.909Z,6.01
2022-09-12T15:36:34.986Z,6.00
2022-09-12T15:37:34.917Z,5.99
2022-09-12T15:40:34.955Z,5.98
2022-09-12T15:44:34.952Z,5.96
2022-09-12T15:45:36.070Z,5.91
2022-09-12T15:46:35.440Z,5.87
2022-09-12T15:47:35.189Z,5.83
2022-09-12T15:48:35.010Z,5.79
2022-09-12T15:49:35.081Z,5.75
2022-09-12T15:50:35.547Z,5.71
2022-09-12T15:51:35.052Z,5.67
2022-09-12T15:52:34.875Z,5.65
2022-09-12T15:53:34.912Z,5.64
2022-09-12T15:54:36.402Z,5.63
2022-09-12T15:55:35.201Z,5.62
2022-09-12T15:56:34.914Z,5.61
2022-09-12T15:57:34.909Z,5.59
2022-09-12T15:59:35.072Z,5.58
2022-09-12T16:00:34.924Z,5.57
2022-09-12T16:01:34.915Z,5.56
2022-09-12T16:02:35.022Z,5.55
2022-09-12T16:04:35.755Z,5.54
2022-09-12T16:05:35.622Z,5.52
2022-09-12T16:06:37.207Z,5.48
2022-09-12T16:07:34.972Z,5.46
2022-09-12T16:08:34.887Z,5.45
2022-09-12T16:09:34.928Z,5.43
2022-09-12T16:10:36.243Z,5.42
2022-09-12T16:12:34.930Z,5.41
2022-09-12T16:14:34.943Z,5.40
2022-09-12T16:15:35.018Z,5.39
2022-09-12T16:20:35.996Z,5.38
2022-09-12T16:24:34.891Z,5.37
2022-09-12T16:28:35.309Z,5.36
2022-09-12T16:29:34.910Z,5.37
2022-09-12T16:30:35.774Z,5.38
2022-09-12T16:36:35.037Z,5.39
2022-09-12T16:37:34.887Z,5.40
2022-09-12T16:38:36.026Z,5.42
2022-09-12T16:39:34.898Z,5.44
2022-09-12T16:40:34.870Z,5.45
2022-09-12T16:41:34.900Z,5.47
2022-09-12T16:42:35.951Z,5.49
2022-09-12T16:43:37.119Z,5.51
2022-09-12T16:44:34.846Z,5.53
2022-09-12T16:45:34.874Z,5.55
2022-09-12T16:46:35.223Z,5.59
2022-09-12T16:47:34.884Z,5.62
2022-09-12T16:48:35.294Z,5.64
2022-09-12T16:49:34.848Z,5.68
2022-09-12T16:50:35.070Z,5.71
2022-09-12T16:51:37.098Z,5.73
2022-09-12T16:52:35.886Z,5.75